createdAt,value
2018-01-13T00:00:52.661Z,0
2018-01-13T00:01:53.380Z,0
2018-01-13T00:02:54.085Z,0
2018-01-13T00:03:54.790Z,0
2018-01-13T00:04:55.508Z,0
2018-01-13T00:05:56.215Z,0
2018-01-13T00:06:56.921Z,0
2018-01-13T00:07:57.627Z,0
2018-01-13T00:08:58.336Z,0
2018-01-13T00:09:59.042Z,0
2018-01-13T00:10:59.748Z,0
2018-01-13T00:12:00.454Z,0
2018-01-13T00:13:01.161Z,0
2018-01-13T00:14:01.866Z,0
2018-01-13T00:15:02.573Z,0
2018-01-13T00:16:03.294Z,0
2018-01-13T00:17:04.024Z,0
2018-01-13T00:18:04.709Z,0
2018-01-13T00:19:05.415Z,0
2018-01-13T00:20:06.133Z,0
2018-01-13T00:21:06.892Z,0
2018-01-13T00:22:07.598Z,0
2018-01-13T00:23:08.302Z,0
2018-01-13T00:24:09.008Z,0
2018-01-13T00:25:09.714Z,0
2018-01-13T00:26:10.420Z,0
2018-01-13T00:27:11.127Z,0
2018-01-13T00:28:11.832Z,0
2018-01-13T00:29:12.538Z,0
2018-01-13T00:30:13.243Z,0
2018-01-13T00:31:13.963Z,0
2018-01-13T00:32:14.683Z,0
2018-01-13T00:33:15.387Z,0
2018-01-13T00:34:16.092Z,0
2018-01-13T00:35:16.811Z,0
2018-01-13T00:36:17.517Z,0
2018-01-13T00:37:18.223Z,0
2018-01-13T00:38:18.931Z,0
2018-01-13T00:39:19.636Z,0
2018-01-13T00:40:20.343Z,0
2018-01-13T00:41:21.048Z,0
2018-01-13T00:42:21.753Z,0
2018-01-13T00:43:22.461Z,0
2018-01-13T00:44:23.171Z,0
2018-01-13T00:45:23.871Z,0
2018-01-13T00:46:24.577Z,0
2018-01-13T00:47:25.282Z,0
2018-01-13T00:48:26.002Z,0
2018-01-13T00:49:26.714Z,0
2018-01-13T00:50:27.420Z,0
2018-01-13T00:51:28.126Z,0
2018-01-13T00:52:28.832Z,0
2018-01-13T00:53:29.540Z,0
2018-01-13T00:54:30.244Z,0
2018-01-13T00:55:30.950Z,0
2018-01-13T00:56:31.657Z,0
2018-01-13T00:57:32.363Z,0
2018-01-13T00:58:33.083Z,0
2018-01-13T00:59:33.799Z,0
2018-01-13T01:00:34.503Z,0
2018-01-13T01:01:35.223Z,0
2018-01-13T01:02:35.929Z,0
2018-01-13T01:03:36.636Z,0
2018-01-13T01:04:37.356Z,0
2018-01-13T01:05:38.066Z,0
2018-01-13T01:06:38.784Z,0
2018-01-13T01:07:39.490Z,0
2018-01-13T01:08:40.197Z,0
2018-01-13T01:09:40.918Z,0
2018-01-13T01:10:41.623Z,0
2018-01-13T01:11:42.328Z,0
2018-01-13T01:12:43.034Z,0
2018-01-13T01:13:43.752Z,0
2018-01-13T01:14:44.457Z,0
2018-01-13T01:15:45.163Z,0
2018-01-13T01:16:45.869Z,0
2018-01-13T01:17:46.577Z,0
2018-01-13T01:18:47.282Z,0
2018-01-13T01:19:47.989Z,0
2018-01-13T01:20:48.709Z,0
2018-01-13T01:21:49.416Z,0
2018-01-13T01:22:50.123Z,0
2018-01-13T01:23:50.830Z,0
2018-01-13T01:24:51.536Z,0
2018-01-13T01:25:52.243Z,0
2018-01-13T01:26:52.951Z,0
2018-01-13T01:27:53.667Z,0
2018-01-13T01:28:54.373Z,0
2018-01-13T01:29:55.080Z,0
2018-01-13T01:30:55.787Z,0
2018-01-13T01:31:56.491Z,0
2018-01-13T01:32:57.198Z,0
2018-01-13T01:33:57.916Z,0
2018-01-13T01:34:58.638Z,0
2018-01-13T01:35:59.344Z,0
2018-01-13T01:37:00.062Z,0
2018-01-13T01:38:00.780Z,0
2018-01-13T01:39:01.499Z,0
2018-01-13T01:40:02.207Z,0
2018-01-13T01:41:02.913Z,0
2018-01-13T01:42:03.619Z,0
2018-01-13T01:43:04.340Z,0
2018-01-13T01:44:05.047Z,0
2018-01-13T01:45:05.754Z,0
2018-01-13T01:46:06.461Z,0
2018-01-13T01:47:07.183Z,0
2018-01-13T01:48:07.893Z,0
2018-01-13T01:49:08.601Z,0
2018-01-13T01:50:09.321Z,0
2018-01-13T01:51:10.032Z,0
2018-01-13T01:52:10.735Z,0
2018-01-13T01:53:11.443Z,0
2018-01-13T01:54:12.149Z,0
2018-01-13T01:55:12.872Z,0
2018-01-13T01:56:13.580Z,0
2018-01-13T01:57:14.287Z,0
2018-01-13T01:58:14.992Z,0
2018-01-13T01:59:15.698Z,0
2018-01-13T02:00:16.418Z,0
2018-01-13T02:01:17.126Z,0
2018-01-13T02:02:17.832Z,0
2018-01-13T02:03:18.538Z,0
2018-01-13T02:04:19.250Z,0
2018-01-13T02:05:19.950Z,0
2018-01-13T02:06:20.657Z,0
2018-01-13T02:07:21.365Z,0
2018-01-13T02:08:22.072Z,0
2018-01-13T02:09:22.795Z,0
2018-01-13T02:10:23.500Z,0
2018-01-13T02:11:24.209Z,0
2018-01-13T02:12:24.927Z,0
2018-01-13T02:13:25.635Z,0
2018-01-13T02:14:26.341Z,0
2018-01-13T02:15:27.047Z,0
2018-01-13T02:16:27.771Z,0
2018-01-13T02:17:28.493Z,0
2018-01-13T02:18:29.199Z,0
2018-01-13T02:19:29.906Z,0
2018-01-13T02:20:30.613Z,0
2018-01-13T02:21:31.319Z,0
2018-01-13T02:22:32.027Z,0
2018-01-13T02:23:32.750Z,0
2018-01-13T02:24:33.457Z,0
2018-01-13T02:25:34.163Z,0
2018-01-13T02:26:34.883Z,0
2018-01-13T02:27:35.590Z,0
2018-01-13T02:28:36.297Z,0
2018-01-13T02:29:37.019Z,0
2018-01-13T02:30:37.727Z,0
2018-01-13T02:31:38.438Z,0
2018-01-13T02:32:39.142Z,0
2018-01-13T02:33:39.849Z,0
2018-01-13T02:34:40.554Z,0
2018-01-13T02:35:41.261Z,0
2018-01-13T02:36:41.967Z,0
2018-01-13T02:37:42.672Z,0
2018-01-13T02:38:43.378Z,0
2018-01-13T02:39:44.085Z,0
2018-01-13T02:40:44.806Z,0
2018-01-13T02:41:45.513Z,0
2018-01-13T02:42:46.220Z,0
2018-01-13T02:43:46.927Z,0
2018-01-13T02:44:47.635Z,0
2018-01-13T02:45:48.343Z,0
2018-01-13T02:46:49.051Z,0
2018-01-13T02:47:49.781Z,0
2018-01-13T02:48:50.487Z,0
2018-01-13T02:49:51.196Z,0
2018-01-13T02:50:51.901Z,0
2018-01-13T02:51:52.610Z,0
2018-01-13T02:52:53.313Z,0
2018-01-13T02:53:54.019Z,0
2018-01-13T02:54:54.724Z,0
2018-01-13T02:55:55.430Z,0
2018-01-13T02:56:56.152Z,0
2018-01-13T02:57:56.862Z,0
2018-01-13T02:58:57.565Z,0
2018-01-13T02:59:58.286Z,0
2018-01-13T03:00:58.994Z,0
2018-01-13T03:01:59.701Z,0
2018-01-13T03:03:00.408Z,0
2018-01-13T03:04:01.112Z,0
2018-01-13T03:05:01.819Z,0
2018-01-13T03:06:02.527Z,0
2018-01-13T03:07:03.233Z,0
2018-01-13T03:08:03.941Z,0
2018-01-13T03:09:04.646Z,0
2018-01-13T03:10:05.352Z,0
2018-01-13T03:11:06.072Z,0
2018-01-13T03:12:06.780Z,0
2018-01-13T03:13:07.485Z,0
2018-01-13T03:14:08.191Z,0
2018-01-13T03:15:08.897Z,0
2018-01-13T03:16:09.621Z,0
2018-01-13T03:17:10.339Z,0
2018-01-13T03:18:11.060Z,0
2018-01-13T03:19:11.767Z,0
2018-01-13T03:20:12.474Z,0
2018-01-13T03:21:13.182Z,0
2018-01-13T03:22:13.888Z,0
2018-01-13T03:23:14.596Z,0
2018-01-13T03:24:15.303Z,0
2018-01-13T03:25:16.009Z,0
2018-01-13T03:26:16.730Z,0
2018-01-13T03:27:17.437Z,0
2018-01-13T03:28:18.145Z,0
2018-01-13T03:29:18.853Z,0
2018-01-13T03:30:19.559Z,0
2018-01-13T03:31:20.278Z,0
2018-01-13T03:32:21.001Z,0
2018-01-13T03:33:21.709Z,0
2018-01-13T03:34:22.430Z,0
2018-01-13T03:35:23.138Z,0
2018-01-13T03:36:23.845Z,0
2018-01-13T03:37:24.551Z,0
2018-01-13T03:38:25.260Z,0
2018-01-13T03:39:25.968Z,0
2018-01-13T03:40:26.672Z,0
2018-01-13T03:41:27.378Z,0
2018-01-13T03:42:28.085Z,0
2018-01-13T03:43:28.790Z,0
2018-01-13T03:44:29.497Z,0
2018-01-13T03:45:30.202Z,0
2018-01-13T03:46:30.926Z,0
2018-01-13T03:47:31.633Z,0
2018-01-13T03:48:32.340Z,0
2018-01-13T03:49:33.059Z,0
2018-01-13T03:50:33.766Z,0
2018-01-13T03:51:34.472Z,0
2018-01-13T03:52:35.198Z,0
2018-01-13T03:53:35.904Z,0
2018-01-13T03:54:36.612Z,0
2018-01-13T03:55:37.319Z,0
2018-01-13T03:56:38.026Z,0
2018-01-13T03:57:38.731Z,0
2018-01-13T03:58:39.438Z,0
2018-01-13T03:59:40.145Z,0
2018-01-13T04:00:40.850Z,0
2018-01-13T04:01:41.557Z,0
2018-01-13T04:02:42.266Z,0
2018-01-13T04:03:42.986Z,0
2018-01-13T04:04:43.693Z,0
2018-01-13T04:05:44.415Z,0
2018-01-13T04:06:45.120Z,0
2018-01-13T04:07:45.841Z,0
2018-01-13T04:08:46.548Z,0
2018-01-13T04:09:47.255Z,0
2018-01-13T04:10:47.962Z,0
2018-01-13T04:11:48.686Z,0
2018-01-13T04:12:49.407Z,0
2018-01-13T04:13:50.114Z,0
2018-01-13T04:14:50.836Z,0
2018-01-13T04:15:51.545Z,0
2018-01-13T04:16:52.267Z,0
2018-01-13T04:17:52.974Z,0
2018-01-13T04:18:53.695Z,0
2018-01-13T04:19:54.400Z,0
2018-01-13T04:20:55.123Z,0
2018-01-13T04:21:55.842Z,0
2018-01-13T04:22:56.549Z,0
2018-01-13T04:23:57.256Z,0
2018-01-13T04:24:57.962Z,0
2018-01-13T04:25:58.669Z,0
2018-01-13T04:26:59.390Z,0
2018-01-13T04:28:00.099Z,0
2018-01-13T04:29:00.806Z,0
2018-01-13T04:30:01.514Z,0
2018-01-13T04:31:02.220Z,0
2018-01-13T04:32:02.925Z,0
2018-01-13T04:33:03.631Z,0
2018-01-13T04:34:04.350Z,0
2018-01-13T04:35:05.058Z,0
2018-01-13T04:36:05.764Z,0
2018-01-13T04:37:06.470Z,0
2018-01-13T04:38:07.177Z,0
2018-01-13T04:39:07.903Z,0
2018-01-13T04:40:08.619Z,0
2018-01-13T04:41:09.340Z,0
2018-01-13T04:42:10.045Z,0
2018-01-13T04:43:10.752Z,0
2018-01-13T04:44:11.473Z,0
2018-01-13T04:45:12.194Z,0
2018-01-13T04:46:12.901Z,0
2018-01-13T04:47:13.641Z,0
2018-01-13T04:48:14.349Z,0
2018-01-13T04:49:15.056Z,0
2018-01-13T04:50:15.763Z,0
2018-01-13T04:51:16.472Z,0
2018-01-13T04:52:17.176Z,0
2018-01-13T04:53:17.897Z,0
2018-01-13T04:54:18.605Z,0
2018-01-13T04:55:19.312Z,0
2018-01-13T04:56:20.019Z,0
2018-01-13T04:57:20.726Z,0
2018-01-13T04:58:21.432Z,0
2018-01-13T04:59:22.140Z,0
2018-01-13T05:00:22.846Z,0
2018-01-13T05:01:23.551Z,0
2018-01-13T05:02:24.258Z,0
2018-01-13T05:03:24.964Z,0
2018-01-13T05:04:25.670Z,0
2018-01-13T05:05:26.376Z,0
2018-01-13T05:06:27.106Z,0
2018-01-13T05:07:27.828Z,0
2018-01-13T05:08:28.534Z,0
2018-01-13T05:09:29.298Z,0
2018-01-13T05:10:30.006Z,0
2018-01-13T05:11:30.727Z,0
2018-01-13T05:12:31.447Z,0
2018-01-13T05:13:32.155Z,0
2018-01-13T05:14:32.934Z,0
2018-01-13T05:15:33.653Z,0
2018-01-13T05:16:34.374Z,0
2018-01-13T05:17:35.083Z,0
2018-01-13T05:18:35.792Z,0
2018-01-13T05:19:36.501Z,0
2018-01-13T05:20:37.206Z,0
2018-01-13T05:21:37.913Z,0
2018-01-13T05:22:38.633Z,0
2018-01-13T05:23:39.345Z,0
2018-01-13T05:24:40.048Z,0
2018-01-13T05:25:40.771Z,0
2018-01-13T05:26:41.478Z,0
2018-01-13T05:27:42.185Z,0
2018-01-13T05:28:42.904Z,0
2018-01-13T05:29:43.624Z,0
2018-01-13T05:30:44.332Z,0
2018-01-13T05:31:45.040Z,0
2018-01-13T05:32:45.761Z,0
2018-01-13T05:33:46.468Z,0
2018-01-13T05:34:47.175Z,0
2018-01-13T05:35:47.882Z,0
2018-01-13T05:36:48.589Z,0
2018-01-13T05:37:49.309Z,0
2018-01-13T05:38:50.016Z,0
2018-01-13T05:39:50.722Z,0
2018-01-13T05:40:51.445Z,0
2018-01-13T05:41:52.150Z,0
2018-01-13T05:42:52.859Z,0
2018-01-13T05:43:53.576Z,0
2018-01-13T05:44:54.284Z,0
2018-01-13T05:45:54.992Z,0
2018-01-13T05:46:55.699Z,0
2018-01-13T05:47:56.405Z,0
2018-01-13T05:48:57.111Z,0
2018-01-13T05:49:57.817Z,0
2018-01-13T05:50:58.526Z,0
2018-01-13T05:51:59.232Z,0
2018-01-13T05:52:59.956Z,0
2018-01-13T05:54:00.663Z,0
2018-01-13T05:55:01.371Z,0
2018-01-13T05:56:02.075Z,0
2018-01-13T05:57:02.782Z,0
2018-01-13T05:58:03.489Z,0
2018-01-13T05:59:04.207Z,0
2018-01-13T06:00:04.934Z,0
2018-01-13T06:01:05.653Z,0
2018-01-13T06:02:06.360Z,0
2018-01-13T06:03:07.068Z,0
2018-01-13T06:04:07.775Z,0
2018-01-13T06:05:08.482Z,0
2018-01-13T06:06:09.189Z,0
2018-01-13T06:07:09.895Z,0
2018-01-13T06:08:10.602Z,0
2018-01-13T06:09:11.310Z,0
2018-01-13T06:10:12.017Z,0
2018-01-13T06:11:12.722Z,0
2018-01-13T06:12:13.429Z,0
2018-01-13T06:13:14.140Z,0
2018-01-13T06:14:14.848Z,0
2018-01-13T06:15:15.557Z,0
2018-01-13T06:16:16.265Z,0
2018-01-13T06:17:16.987Z,0
2018-01-13T06:18:17.694Z,0
2018-01-13T06:19:18.417Z,0
2018-01-13T06:20:19.125Z,0
2018-01-13T06:21:19.848Z,0
2018-01-13T06:22:20.568Z,0
2018-01-13T06:23:21.274Z,0
2018-01-13T06:24:21.997Z,0
2018-01-13T06:25:22.704Z,0
2018-01-13T06:26:23.411Z,0
2018-01-13T06:27:24.118Z,0
2018-01-13T06:28:24.824Z,0
2018-01-13T06:29:25.531Z,0
2018-01-13T06:30:26.236Z,0
2018-01-13T06:31:26.993Z,0
2018-01-13T06:32:27.713Z,0
2018-01-13T06:33:28.424Z,0
2018-01-13T06:34:29.130Z,0
2018-01-13T06:35:29.840Z,0
2018-01-13T06:36:30.547Z,0
2018-01-13T06:37:31.253Z,0
2018-01-13T06:38:31.959Z,0
2018-01-13T06:39:32.667Z,0
2018-01-13T06:40:33.373Z,0
2018-01-13T06:41:34.081Z,0
2018-01-13T06:42:34.805Z,0
2018-01-13T06:43:35.506Z,0
2018-01-13T06:44:36.229Z,0
2018-01-13T06:45:36.976Z,0
2018-01-13T06:46:37.656Z,0
2018-01-13T06:47:38.369Z,0
2018-01-13T06:48:39.073Z,0
2018-01-13T06:49:39.780Z,0
2018-01-13T06:50:40.487Z,0
2018-01-13T06:51:41.193Z,0
2018-01-13T06:52:41.899Z,0
2018-01-13T06:53:42.605Z,0
2018-01-13T06:54:43.312Z,0
2018-01-13T06:55:44.020Z,0
2018-01-13T06:56:44.742Z,0
2018-01-13T06:57:45.450Z,0
2018-01-13T06:58:46.157Z,4
2018-01-13T06:59:46.876Z,0
2018-01-13T07:00:47.582Z,0
2018-01-13T07:01:48.309Z,4
2018-01-13T07:02:49.026Z,4
2018-01-13T07:03:49.733Z,4
2018-01-13T07:04:50.455Z,4
2018-01-13T07:05:51.193Z,8
2018-01-13T07:06:51.916Z,4
2018-01-13T07:07:52.624Z,8
2018-01-13T07:08:53.330Z,8
2018-01-13T07:09:54.038Z,8
2018-01-13T07:10:54.744Z,8
2018-01-13T07:11:55.453Z,12
2018-01-13T07:12:56.159Z,12
2018-01-13T07:13:56.881Z,16
2018-01-13T07:14:57.589Z,16
2018-01-13T07:15:58.312Z,20
2018-01-13T07:16:59.020Z,24
2018-01-13T07:17:59.742Z,28
2018-01-13T07:19:00.449Z,28
2018-01-13T07:20:01.173Z,36
2018-01-13T07:21:01.887Z,36
2018-01-13T07:22:02.589Z,40
2018-01-13T07:23:03.297Z,48
2018-01-13T07:24:04.005Z,48
2018-01-13T07:25:04.712Z,56
2018-01-13T07:26:05.421Z,60
2018-01-13T07:27:06.129Z,68
2018-01-13T07:28:06.836Z,80
2018-01-13T07:29:07.579Z,88
2018-01-13T07:30:08.301Z,96
2018-01-13T07:31:09.008Z,104
2018-01-13T07:32:09.718Z,112
2018-01-13T07:33:10.429Z,120
2018-01-13T07:34:11.138Z,128
2018-01-13T07:35:11.856Z,132
2018-01-13T07:36:12.565Z,136
2018-01-13T07:37:13.274Z,144
2018-01-13T07:38:13.983Z,152
2018-01-13T07:39:14.692Z,164
2018-01-13T07:40:15.416Z,176
2018-01-13T07:41:16.126Z,188
2018-01-13T07:42:16.833Z,204
2018-01-13T07:43:17.544Z,216
2018-01-13T07:44:18.259Z,228
2018-01-13T07:45:18.961Z,240
2018-01-13T07:46:19.670Z,252
2018-01-13T07:47:20.383Z,264
2018-01-13T07:48:21.094Z,276
2018-01-13T07:49:21.805Z,296
2018-01-13T07:50:22.528Z,308
2018-01-13T07:51:23.238Z,324
2018-01-13T07:52:23.949Z,336
2018-01-13T07:53:24.660Z,360
2018-01-13T07:54:25.371Z,392
2018-01-13T07:55:26.081Z,424
2018-01-13T07:56:26.790Z,456
2018-01-13T07:57:27.501Z,476
2018-01-13T07:58:28.215Z,488
2018-01-13T07:59:28.938Z,500
2018-01-13T08:00:29.650Z,512
2018-01-13T08:01:30.358Z,524
2018-01-13T08:02:31.067Z,548
2018-01-13T08:03:31.789Z,576
2018-01-13T08:04:32.487Z,620
2018-01-13T08:05:33.198Z,668
2018-01-13T08:06:33.911Z,724
2018-01-13T08:07:34.618Z,788
2018-01-13T08:08:35.329Z,860
2018-01-13T08:09:36.042Z,932
2018-01-13T08:10:36.767Z,996
2018-01-13T08:11:37.478Z,1056
2018-01-13T08:12:38.189Z,1108
2018-01-13T08:13:38.902Z,1160
2018-01-13T08:14:39.612Z,1212
2018-01-13T08:15:40.323Z,1272
2018-01-13T08:16:41.033Z,1328
2018-01-13T08:17:41.749Z,1376
2018-01-13T08:18:42.457Z,1424
2018-01-13T08:19:43.167Z,1480
2018-01-13T08:20:43.880Z,1516
2018-01-13T08:21:44.606Z,1560
2018-01-13T08:22:45.317Z,1620
2018-01-13T08:23:46.028Z,1648
2018-01-13T08:24:46.741Z,1680
2018-01-13T08:25:47.454Z,1736
2018-01-13T08:26:48.166Z,1776
2018-01-13T08:27:48.876Z,1804
2018-01-13T08:28:49.600Z,1828
2018-01-13T08:29:50.311Z,1844
2018-01-13T08:30:51.024Z,1844
2018-01-13T08:31:51.735Z,1808
2018-01-13T08:32:52.446Z,1756
2018-01-13T08:33:53.160Z,1700
2018-01-13T08:34:53.869Z,1680
2018-01-13T08:35:54.580Z,1680
2018-01-13T08:36:55.294Z,1720
2018-01-13T08:37:56.019Z,1784
2018-01-13T08:38:56.729Z,1824
2018-01-13T08:39:57.456Z,1864
2018-01-13T08:40:58.170Z,1948
2018-01-13T08:41:58.881Z,1988
2018-01-13T08:42:59.606Z,1996
2018-01-13T08:44:00.318Z,2016
2018-01-13T08:45:01.031Z,2096
2018-01-13T08:46:01.745Z,2260
2018-01-13T08:47:02.455Z,2468
2018-01-13T08:48:03.166Z,2636
2018-01-13T08:49:03.879Z,2744
2018-01-13T08:50:04.607Z,2812
2018-01-13T08:51:05.319Z,2816
2018-01-13T08:52:06.044Z,2672
2018-01-13T08:53:06.756Z,2516
2018-01-13T08:54:07.469Z,2348
2018-01-13T08:55:08.182Z,2284
2018-01-13T08:56:08.895Z,2424
2018-01-13T08:57:09.621Z,2724
2018-01-13T08:58:10.334Z,2976
2018-01-13T08:59:11.049Z,3144
2018-01-13T09:00:11.760Z,3068
2018-01-13T09:01:12.486Z,2932
2018-01-13T09:02:13.203Z,2824
2018-01-13T09:03:13.925Z,2800
2018-01-13T09:04:14.638Z,2792
2018-01-13T09:05:15.349Z,2724
2018-01-13T09:06:16.062Z,2584
2018-01-13T09:07:16.776Z,2528
2018-01-13T09:08:17.489Z,2476
2018-01-13T09:09:18.200Z,2400
2018-01-13T09:10:18.912Z,2312
2018-01-13T09:11:19.624Z,2308
2018-01-13T09:12:20.337Z,2312
2018-01-13T09:13:21.049Z,2252
2018-01-13T09:14:21.762Z,2192
2018-01-13T09:15:22.481Z,2160
2018-01-13T09:16:23.189Z,2164
2018-01-13T09:17:23.902Z,2180
2018-01-13T09:18:24.615Z,2184
2018-01-13T09:19:25.331Z,2192
2018-01-13T09:20:26.043Z,2192
2018-01-13T09:21:26.756Z,2112
2018-01-13T09:22:27.467Z,2016
2018-01-13T09:23:28.179Z,2016
2018-01-13T09:24:28.891Z,2116
2018-01-13T09:25:29.604Z,2236
2018-01-13T09:26:30.331Z,2280
2018-01-13T09:27:31.042Z,2296
2018-01-13T09:28:31.755Z,2344
2018-01-13T09:29:32.466Z,2404
2018-01-13T09:30:33.183Z,2396
2018-01-13T09:31:33.894Z,2320
2018-01-13T09:32:34.606Z,2316
2018-01-13T09:33:35.317Z,2352
2018-01-13T09:34:36.029Z,2428
2018-01-13T09:35:36.740Z,2460
2018-01-13T09:36:37.454Z,2492
2018-01-13T09:37:38.166Z,2548
2018-01-13T09:38:38.879Z,2644
2018-01-13T09:39:39.593Z,2812
2018-01-13T09:40:40.304Z,2924
2018-01-13T09:41:41.017Z,2972
2018-01-13T09:42:41.728Z,3016
2018-01-13T09:43:42.439Z,3024
2018-01-13T09:44:43.151Z,3140
2018-01-13T09:45:43.880Z,3408
2018-01-13T09:46:44.593Z,3532
2018-01-13T09:47:45.306Z,3592
2018-01-13T09:48:46.042Z,3652
2018-01-13T09:49:46.752Z,3640
2018-01-13T09:50:47.465Z,3732
2018-01-13T09:51:48.178Z,3772
2018-01-13T09:52:48.896Z,3692
2018-01-13T09:53:49.610Z,3704
2018-01-13T09:54:50.324Z,3828
2018-01-13T09:55:51.041Z,4080
2018-01-13T09:56:51.756Z,4244
2018-01-13T09:57:52.472Z,4388
2018-01-13T09:58:53.187Z,4448
2018-01-13T09:59:53.915Z,4532
2018-01-13T10:00:54.630Z,4140
2018-01-13T10:01:55.345Z,4008
2018-01-13T10:02:56.073Z,3956
2018-01-13T10:03:56.789Z,4064
2018-01-13T10:04:57.505Z,3664
2018-01-13T10:05:58.252Z,3528
2018-01-13T10:06:58.936Z,3428
2018-01-13T10:07:59.650Z,3064
2018-01-13T10:09:00.364Z,3164
2018-01-13T10:10:01.079Z,3220
2018-01-13T10:11:01.795Z,3248
2018-01-13T10:12:02.508Z,3288
2018-01-13T10:13:03.223Z,3216
2018-01-13T10:14:03.934Z,3356
2018-01-13T10:15:04.649Z,3480
2018-01-13T10:16:05.379Z,3388
2018-01-13T10:17:06.095Z,3368
2018-01-13T10:18:06.825Z,3324
2018-01-13T10:19:07.543Z,3200
2018-01-13T10:20:08.269Z,3624
2018-01-13T10:21:08.986Z,4196
2018-01-13T10:22:09.714Z,3964
2018-01-13T10:23:10.429Z,3712
2018-01-13T10:24:11.145Z,4112
2018-01-13T10:25:11.859Z,3908
2018-01-13T10:26:12.573Z,3780
2018-01-13T10:27:13.290Z,4236
2018-01-13T10:28:14.054Z,4260
2018-01-13T10:29:14.736Z,3816
2018-01-13T10:30:15.466Z,3912
2018-01-13T10:31:16.182Z,4224
2018-01-13T10:32:16.897Z,3964
2018-01-13T10:33:17.615Z,3816
2018-01-13T10:34:18.328Z,4300
2018-01-13T10:35:19.044Z,4396
2018-01-13T10:36:19.759Z,4592
2018-01-13T10:37:20.489Z,4520
2018-01-13T10:38:21.202Z,4568
2018-01-13T10:39:21.933Z,4632
2018-01-13T10:40:22.662Z,4068
2018-01-13T10:41:23.377Z,4168
2018-01-13T10:42:24.096Z,3952
2018-01-13T10:43:24.808Z,3632
2018-01-13T10:44:25.524Z,3640
2018-01-13T10:45:26.239Z,4028
2018-01-13T10:46:26.956Z,4052
2018-01-13T10:47:27.673Z,3964
2018-01-13T10:48:28.400Z,4156
2018-01-13T10:49:29.117Z,4000
2018-01-13T10:50:29.846Z,3912
2018-01-13T10:51:30.561Z,4112
2018-01-13T10:52:31.291Z,4128
2018-01-13T10:53:32.007Z,4064
2018-01-13T10:54:32.740Z,4508
2018-01-13T10:55:33.452Z,4852
2018-01-13T10:56:34.181Z,4792
2018-01-13T10:57:34.896Z,4524
2018-01-13T10:58:35.626Z,4464
2018-01-13T10:59:36.343Z,4436
2018-01-13T11:00:37.057Z,4560
2018-01-13T11:01:37.789Z,4224
2018-01-13T11:02:38.503Z,4080
2018-01-13T11:03:39.218Z,4108
2018-01-13T11:04:39.934Z,4168
2018-01-13T11:05:40.650Z,4308
2018-01-13T11:06:41.400Z,4360
2018-01-13T11:07:42.079Z,4088
2018-01-13T11:08:42.810Z,3904
2018-01-13T11:09:43.538Z,3780
2018-01-13T11:10:44.254Z,3956
2018-01-13T11:11:44.970Z,4324
2018-01-13T11:12:45.686Z,4536
2018-01-13T11:13:46.400Z,4448
2018-01-13T11:14:47.132Z,3892
2018-01-13T11:15:47.845Z,3572
2018-01-13T11:16:48.572Z,3564
2018-01-13T11:17:49.287Z,3344
2018-01-13T11:18:50.003Z,3184
2018-01-13T11:19:50.731Z,3420
2018-01-13T11:20:51.446Z,3456
2018-01-13T11:21:52.161Z,3796
2018-01-13T11:22:52.891Z,3656
2018-01-13T11:23:53.607Z,3516
2018-01-13T11:24:54.323Z,3368
2018-01-13T11:25:55.039Z,3084
2018-01-13T11:26:55.757Z,3016
2018-01-13T11:27:56.480Z,2876
2018-01-13T11:28:57.193Z,2728
2018-01-13T11:29:57.907Z,2624
2018-01-13T11:30:58.635Z,2596
2018-01-13T11:31:59.348Z,2728
2018-01-13T11:33:00.063Z,2804
2018-01-13T11:34:00.777Z,2600
2018-01-13T11:35:01.492Z,2596
2018-01-13T11:36:02.206Z,2420
2018-01-13T11:37:02.919Z,2316
2018-01-13T11:38:03.632Z,2196
2018-01-13T11:39:04.363Z,2036
2018-01-13T11:40:05.077Z,2132
2018-01-13T11:41:05.805Z,2332
2018-01-13T11:42:06.521Z,2284
2018-01-13T11:43:07.235Z,2272
2018-01-13T11:44:07.949Z,2304
2018-01-13T11:45:08.664Z,2240
2018-01-13T11:46:09.376Z,2176
2018-01-13T11:47:10.091Z,2168
2018-01-13T11:48:10.804Z,2240
2018-01-13T11:49:11.518Z,2196
2018-01-13T11:50:12.245Z,2136
2018-01-13T11:51:12.960Z,2272
2018-01-13T11:52:13.676Z,2184
2018-01-13T11:53:14.388Z,2260
2018-01-13T11:54:15.116Z,2132
2018-01-13T11:55:15.831Z,2036
2018-01-13T11:56:16.545Z,2064
2018-01-13T11:57:17.259Z,1908
2018-01-13T11:58:17.973Z,1908
2018-01-13T11:59:18.686Z,1972
2018-01-13T12:00:19.400Z,1900
2018-01-13T12:01:20.115Z,1940
2018-01-13T12:02:20.827Z,1956
2018-01-13T12:03:21.540Z,2020
2018-01-13T12:04:22.254Z,2108
2018-01-13T12:05:22.967Z,2136
2018-01-13T12:06:23.680Z,1992
2018-01-13T12:07:24.409Z,1904
2018-01-13T12:08:25.125Z,2020
2018-01-13T12:09:25.839Z,2076
2018-01-13T12:10:26.554Z,2012
2018-01-13T12:11:27.268Z,1940
2018-01-13T12:12:27.981Z,1756
2018-01-13T12:13:28.695Z,1688
2018-01-13T12:14:29.407Z,1612
2018-01-13T12:15:30.120Z,1616
2018-01-13T12:16:30.834Z,1724
2018-01-13T12:17:31.561Z,1884
2018-01-13T12:18:32.274Z,1856
2018-01-13T12:19:32.989Z,1676
2018-01-13T12:20:33.704Z,1556
2018-01-13T12:21:34.426Z,1544
2018-01-13T12:22:35.132Z,1584
2018-01-13T12:23:35.846Z,1652
2018-01-13T12:24:36.584Z,1716
2018-01-13T12:25:37.272Z,1844
2018-01-13T12:26:37.988Z,1884
2018-01-13T12:27:38.700Z,1800
2018-01-13T12:28:39.416Z,1684
2018-01-13T12:29:40.128Z,1576
2018-01-13T12:30:40.842Z,1532
2018-01-13T12:31:41.570Z,1548
2018-01-13T12:32:42.283Z,1596
2018-01-13T12:33:42.998Z,1656
2018-01-13T12:34:43.710Z,1820
2018-01-13T12:35:44.425Z,1956
2018-01-13T12:36:45.138Z,2040
2018-01-13T12:37:45.866Z,2068
2018-01-13T12:38:46.579Z,2120
2018-01-13T12:39:47.294Z,2108
2018-01-13T12:40:48.008Z,2044
2018-01-13T12:41:48.720Z,1964
2018-01-13T12:42:49.432Z,1884
2018-01-13T12:43:50.145Z,1800
2018-01-13T12:44:50.859Z,1728
2018-01-13T12:45:51.572Z,1684
2018-01-13T12:46:52.287Z,1708
2018-01-13T12:47:53.047Z,1724
2018-01-13T12:48:53.729Z,1800
2018-01-13T12:49:54.457Z,1788
2018-01-13T12:50:55.170Z,1788
2018-01-13T12:51:55.884Z,1844
2018-01-13T12:52:56.596Z,1816
2018-01-13T12:53:57.310Z,1708
2018-01-13T12:54:58.025Z,1644
2018-01-13T12:55:58.738Z,1660
2018-01-13T12:56:59.464Z,1652
2018-01-13T12:58:00.180Z,1636
2018-01-13T12:59:00.906Z,1656
2018-01-13T13:00:01.620Z,1676
2018-01-13T13:01:02.334Z,1660
2018-01-13T13:02:03.048Z,1648
2018-01-13T13:03:03.763Z,1632
2018-01-13T13:04:04.478Z,1632
2018-01-13T13:05:05.191Z,1732
2018-01-13T13:06:05.905Z,1812
2018-01-13T13:07:06.618Z,1808
2018-01-13T13:08:07.331Z,1864
2018-01-13T13:09:08.047Z,1872
2018-01-13T13:10:08.758Z,1840
2018-01-13T13:11:09.485Z,1796
2018-01-13T13:12:10.200Z,1872
2018-01-13T13:13:10.918Z,1808
2018-01-13T13:14:11.629Z,1768
2018-01-13T13:15:12.346Z,1776
2018-01-13T13:16:13.057Z,1804
2018-01-13T13:17:13.772Z,1748
2018-01-13T13:18:14.485Z,1724
2018-01-13T13:19:15.200Z,1684
2018-01-13T13:20:15.915Z,1556
2018-01-13T13:21:16.643Z,1392
2018-01-13T13:22:17.358Z,1256
2018-01-13T13:23:18.072Z,1172
2018-01-13T13:24:18.786Z,1092
2018-01-13T13:25:19.501Z,1160
2018-01-13T13:26:20.213Z,1324
2018-01-13T13:27:20.925Z,1268
2018-01-13T13:28:21.639Z,1256
2018-01-13T13:29:22.368Z,1304
2018-01-13T13:30:23.081Z,1320
2018-01-13T13:31:23.793Z,1328
2018-01-13T13:32:24.510Z,1272
2018-01-13T13:33:25.238Z,1228
2018-01-13T13:34:25.953Z,1260
2018-01-13T13:35:26.663Z,1320
2018-01-13T13:36:27.378Z,1448
2018-01-13T13:37:28.104Z,1444
2018-01-13T13:38:28.818Z,1304
2018-01-13T13:39:29.548Z,1196
2018-01-13T13:40:30.261Z,1104
2018-01-13T13:41:30.975Z,1048
2018-01-13T13:42:31.688Z,1064
2018-01-13T13:43:32.401Z,1124
2018-01-13T13:44:33.118Z,1140
2018-01-13T13:45:33.830Z,1164
2018-01-13T13:46:34.550Z,1224
2018-01-13T13:47:35.274Z,1260
2018-01-13T13:48:35.988Z,1324
2018-01-13T13:49:36.717Z,1420
2018-01-13T13:50:37.427Z,1512
2018-01-13T13:51:38.141Z,1568
2018-01-13T13:52:38.856Z,1608
2018-01-13T13:53:39.568Z,1648
2018-01-13T13:54:40.283Z,1732
2018-01-13T13:55:40.994Z,1752
2018-01-13T13:56:41.708Z,1608
2018-01-13T13:57:42.422Z,1484
2018-01-13T13:58:43.137Z,1392
2018-01-13T13:59:43.864Z,1328
2018-01-13T14:00:44.580Z,1304
2018-01-13T14:01:45.310Z,1260
2018-01-13T14:02:46.024Z,1220
2018-01-13T14:03:46.752Z,1180
2018-01-13T14:04:47.465Z,1132
2018-01-13T14:05:48.180Z,1104
2018-01-13T14:06:48.914Z,1092
2018-01-13T14:07:49.626Z,1100
2018-01-13T14:08:50.341Z,1136
2018-01-13T14:09:51.053Z,1152
2018-01-13T14:10:51.766Z,1120
2018-01-13T14:11:52.481Z,1116
2018-01-13T14:12:53.210Z,1120
2018-01-13T14:13:53.922Z,1116